createdAt,value
2023-11-15T00:01:35.237Z,9.50
2023-11-15T00:04:04.457Z,9.48
2023-11-15T00:06:32.762Z,9.45
2023-11-15T00:09:00.985Z,9.45
2023-11-15T00:11:30.711Z,9.45
2023-11-15T00:13:59.025Z,9.11
2023-11-15T00:16:27.378Z,9.29
2023-11-15T00:18:56.023Z,9.38
2023-11-15T00:21:24.769Z,9.49
2023-11-15T00:23:52.980Z,9.46
2023-11-15T00:26:21.757Z,9.46
2023-11-15T00:28:51.360Z,9.31
2023-11-15T00:31:19.505Z,9.24
2023-11-15T00:33:47.941Z,9.22
2023-11-15T00:36:21.138Z,9.13
2023-11-15T00:38:50.713Z,8.00
2023-11-15T00:41:19.747Z,9.32
2023-11-15T00:43:48.889Z,9.30
2023-11-15T00:46:18.528Z,9.30
2023-11-15T00:48:46.746Z,9.34
2023-11-15T00:51:14.915Z,9.39
2023-11-15T00:53:43.121Z,9.33
2023-11-15T00:56:12.634Z,9.27
2023-11-15T00:58:42.679Z,8.94
2023-11-15T01:01:12.417Z,9.31
2023-11-15T01:03:47.057Z,9.29
2023-11-15T01:06:17.308Z,9.33
2023-11-15T01:08:45.530Z,9.12
2023-11-15T01:11:14.877Z,9.25
2023-11-15T01:13:43.058Z,9.25
2023-11-15T01:16:11.278Z,9.29
2023-11-15T01:18:39.506Z,9.29
2023-11-15T01:21:11.358Z,9.38
2023-11-15T01:23:39.876Z,9.29
2023-11-15T01:26:08.879Z,9.30
2023-11-15T01:28:37.098Z,9.12
2023-11-15T01:31:05.822Z,9.21
2023-11-15T01:33:34.099Z,9.26
2023-11-15T01:36:02.334Z,9.24
2023-11-15T01:38:31.931Z,9.18
2023-11-15T01:41:01.104Z,9.19
2023-11-15T01:43:29.250Z,9.12
2023-11-15T01:45:57.708Z,9.07
2023-11-15T01:48:26.946Z,9.09
2023-11-15T01:50:55.244Z,9.00
2023-11-15T01:53:24.009Z,9.17
2023-11-15T01:55:54.234Z,9.19
2023-11-15T01:58:26.740Z,9.24
2023-11-15T02:00:55.989Z,9.30
2023-11-15T02:03:24.450Z,9.26
2023-11-15T02:05:54.887Z,9.16
2023-11-15T02:08:23.351Z,9.29
2023-11-15T02:10:51.631Z,9.29
2023-11-15T02:13:26.586Z,9.17
2023-11-15T02:15:58.042Z,9.15
2023-11-15T02:18:26.969Z,9.19
2023-11-15T02:20:55.354Z,9.05
2023-11-15T02:23:25.140Z,8.97
2023-11-15T02:25:54.790Z,8.84
2023-11-15T02:28:23.039Z,8.86
2023-11-15T02:30:51.496Z,8.29
2023-11-15T02:33:20.167Z,8.30
2023-11-15T02:35:49.081Z,8.76
2023-11-15T02:38:17.705Z,8.83
2023-11-15T02:40:46.828Z,8.98
2023-11-15T02:43:16.542Z,8.96
2023-11-15T02:45:44.808Z,8.84
2023-11-15T02:48:13.324Z,8.67
2023-11-15T02:50:41.599Z,8.57
2023-11-15T02:53:09.867Z,8.48
2023-11-15T02:55:38.049Z,8.36
2023-11-15T02:58:06.184Z,8.28
2023-11-15T03:00:36.310Z,8.41
2023-11-15T03:03:05.547Z,8.47
2023-11-15T03:05:34.142Z,8.42
2023-11-15T03:08:02.355Z,8.43
2023-11-15T03:10:30.581Z,8.34
2023-11-15T03:12:58.765Z,8.15
2023-11-15T03:15:27.099Z,8.23
2023-11-15T03:17:57.106Z,8.23
2023-11-15T03:20:26.461Z,8.20
2023-11-15T03:22:55.039Z,8.09
2023-11-15T03:25:23.840Z,8.15
2023-11-15T03:27:52.194Z,8.02
2023-11-15T03:30:20.870Z,8.07
2023-11-15T03:32:49.268Z,8.06
2023-11-15T03:35:21.751Z,8.07
2023-11-15T03:37:49.932Z,8.07
2023-11-15T03:40:20.918Z,8.05
2023-11-15T03:42:49.344Z,7.83
2023-11-15T03:45:17.525Z,7.96
2023-11-15T03:47:45.747Z,7.93
2023-11-15T03:50:14.093Z,7.83
2023-11-15T03:52:43.910Z,7.73
2023-11-15T03:55:12.171Z,7.78
2023-11-15T03:57:40.329Z,7.78
2023-11-15T04:00:11.949Z,7.75
2023-11-15T04:02:40.479Z,7.77
2023-11-15T04:05:10.592Z,7.77
2023-11-15T04:07:40.177Z,7.76
2023-11-15T04:10:11.315Z,7.70
2023-11-15T04:12:39.765Z,7.67
2023-11-15T04:15:10.701Z,7.49
2023-11-15T04:17:39.242Z,7.78
2023-11-15T04:20:10.201Z,7.78
2023-11-15T04:22:38.408Z,7.68
2023-11-15T04:25:07.474Z,7.62
2023-11-15T04:27:37.894Z,7.13
2023-11-15T04:30:07.134Z,7.34
2023-11-15T04:32:35.317Z,7.38
2023-11-15T04:35:04.383Z,7.38
2023-11-15T04:37:32.558Z,7.36
2023-11-15T04:40:00.729Z,7.34
2023-11-15T04:42:29.042Z,7.23
2023-11-15T04:44:58.667Z,7.32
2023-11-15T04:47:27.179Z,7.28
2023-11-15T04:49:55.348Z,7.22
2023-11-15T04:52:24.141Z,7.23
2023-11-15T04:54:52.327Z,7.34
2023-11-15T04:57:24.684Z,7.20
2023-11-15T04:59:53.768Z,7.27
2023-11-15T05:02:23.576Z,7.10
2023-11-15T05:04:53.462Z,7.12
2023-11-15T05:07:23.947Z,6.91
2023-11-15T05:09:52.184Z,7.04
2023-11-15T05:12:20.381Z,7.05
2023-11-15T05:14:48.612Z,6.97
2023-11-15T05:17:17.191Z,6.98
2023-11-15T05:19:46.784Z,7.00
2023-11-15T05:22:15.061Z,6.94
2023-11-15T05:24:43.994Z,7.05
2023-11-15T05:27:12.257Z,6.97
2023-11-15T05:29:40.491Z,7.03
2023-11-15T05:32:10.463Z,7.07
2023-11-15T05:34:38.647Z,7.13
2023-11-15T05:37:08.336Z,7.10
2023-11-15T05:39:36.518Z,7.11
2023-11-15T05:42:05.590Z,7.07
2023-11-15T05:44:33.754Z,6.99
2023-11-15T05:47:02.362Z,6.97
2023-11-15T05:49:32.204Z,6.71
2023-11-15T05:52:00.638Z,7.07
2023-11-15T05:54:31.324Z,7.20
2023-11-15T05:57:00.031Z,7.22
2023-11-15T05:59:28.921Z,7.46
2023-11-15T06:01:57.191Z,7.46
2023-11-15T06:04:25.573Z,7.53
2023-11-15T06:06:54.000Z,7.44
2023-11-15T06:09:22.605Z,7.51
2023-11-15T06:11:52.536Z,7.72
2023-11-15T06:14:20.950Z,7.94
2023-11-15T06:16:49.175Z,8.23
2023-11-15T06:19:18.049Z,8.49
2023-11-15T06:21:46.682Z,8.58
2023-11-15T06:24:15.353Z,8.74
2023-11-15T06:26:45.711Z,8.94
2023-11-15T06:29:15.397Z,9.29
2023-11-15T06:31:44.051Z,9.44
2023-11-15T06:34:12.709Z,9.49
2023-11-15T06:36:43.430Z,9.44
2023-11-15T06:39:13.624Z,9.75
2023-11-15T06:41:42.808Z,9.95
2023-11-15T06:44:11.773Z,10.09
2023-11-15T06:46:41.532Z,10.16
2023-11-15T06:49:12.198Z,9.74
2023-11-15T06:51:40.990Z,10.35
2023-11-15T06:54:09.392Z,10.42
2023-11-15T06:56:37.620Z,10.39
2023-11-15T06:59:06.157Z,10.57
2023-11-15T07:01:34.349Z,10.64
2023-11-15T07:04:04.257Z,10.74
2023-11-15T07:06:33.705Z,10.86
2023-11-15T07:09:03.681Z,10.97
2023-11-15T07:11:32.975Z,11.19
2023-11-15T07:14:02.172Z,11.37
2023-11-15T07:16:30.873Z,11.37
2023-11-15T07:18:59.057Z,11.52
2023-11-15T07:21:28.826Z,11.54
2023-11-15T07:23:59.702Z,11.75
2023-11-15T07:26:29.113Z,11.87
2023-11-15T07:28:58.154Z,12.03
2023-11-15T07:31:26.401Z,12.13
2023-11-15T07:33:54.639Z,12.10
2023-11-15T07:36:22.858Z,12.34
2023-11-15T07:38:52.493Z,12.09
2023-11-15T07:41:20.732Z,12.57
2023-11-15T07:43:48.969Z,12.65
2023-11-15T07:46:17.134Z,12.48
2023-11-15T07:48:45.396Z,12.88
2023-11-15T07:51:14.022Z,12.96
2023-11-15T07:53:43.383Z,12.93
2023-11-15T07:56:13.111Z,13.03
2023-11-15T07:58:41.260Z,13.03
2023-11-15T08:01:11.063Z,13.08
2023-11-15T08:03:40.315Z,13.08
2023-11-15T08:06:09.635Z,13.12
2023-11-15T08:08:38.130Z,13.18
2023-11-15T08:11:06.902Z,13.32
2023-11-15T08:13:36.508Z,13.37
2023-11-15T08:16:05.060Z,13.47
2023-11-15T08:18:33.331Z,13.57
2023-11-15T08:21:04.175Z,13.57
2023-11-15T08:23:32.410Z,13.68
2023-11-15T08:26:03.812Z,13.72
2023-11-15T08:28:32.347Z,13.79
2023-11-15T08:31:02.125Z,13.90
2023-11-15T08:33:30.949Z,13.98
2023-11-15T08:35:59.233Z,14.02
2023-11-15T08:38:27.434Z,14.08
2023-11-15T08:40:57.014Z,14.12
2023-11-15T08:43:25.314Z,14.12
2023-11-15T08:45:53.625Z,13.92
2023-11-15T08:48:24.498Z,14.25
2023-11-15T08:50:53.066Z,14.27
2023-11-15T08:53:26.438Z,14.31
2023-11-15T08:55:55.024Z,14.33
2023-11-15T08:58:28.641Z,14.42
2023-11-15T09:01:02.556Z,14.44
2023-11-15T09:03:33.429Z,14.56
2023-11-15T09:06:02.431Z,14.55
2023-11-15T09:08:32.655Z,14.60
2023-11-15T09:11:01.070Z,14.57
2023-11-15T09:13:29.767Z,14.72
2023-11-15T09:16:00.423Z,14.80
2023-11-15T09:18:29.138Z,14.94
2023-11-15T09:20:59.610Z,15.02
2023-11-15T09:23:31.156Z,15.02
2023-11-15T09:26:01.285Z,15.03
2023-11-15T09:28:29.667Z,15.08
2023-11-15T09:30:57.882Z,15.21
2023-11-15T09:33:27.543Z,15.05
2023-11-15T09:36:01.369Z,14.91
2023-11-15T09:38:30.474Z,14.40
2023-11-15T09:41:01.727Z,15.23
2023-11-15T09:43:30.327Z,15.33
2023-11-15T09:46:00.186Z,15.40
2023-11-15T09:48:28.929Z,15.37
2023-11-15T09:51:01.353Z,15.06
2023-11-15T09:53:33.277Z,15.35
2023-11-15T09:56:05.624Z,15.42
2023-11-15T09:58:34.176Z,15.29
2023-11-15T10:01:04.126Z,15.25
2023-11-15T10:03:32.626Z,15.41
2023-11-15T10:06:05.087Z,15.29
2023-11-15T10:08:33.558Z,15.34
2023-11-15T10:11:10.368Z,15.22
2023-11-15T10:13:39.433Z,15.13
2023-11-15T10:16:24.538Z,15.26
2023-11-15T10:18:54.411Z,15.32
2023-11-15T10:21:24.191Z,15.28
2023-11-15T10:24:11.656Z,15.30
2023-11-15T10:26:40.195Z,15.50
2023-11-15T10:29:14.114Z,15.54
2023-11-15T10:31:54.300Z,15.62
2023-11-15T10:34:31.072Z,15.74
2023-11-15T10:37:08.624Z,15.83
2023-11-15T10:39:42.135Z,15.88
2023-11-15T10:42:14.337Z,15.91
2023-11-15T10:44:48.830Z,15.93
2023-11-15T10:47:21.324Z,16.01
2023-11-15T10:49:55.846Z,15.98
2023-11-15T10:52:26.525Z,15.89
2023-11-15T10:54:58.711Z,15.94
2023-11-15T10:57:29.113Z,16.00
2023-11-15T10:59:58.803Z,16.00
2023-11-15T11:02:30.896Z,15.91
2023-11-15T11:05:00.839Z,16.07
2023-11-15T11:07:41.638Z,16.08
2023-11-15T11:10:22.421Z,15.94
2023-11-15T11:12:50.697Z,16.02
2023-11-15T11:15:31.420Z,15.97
2023-11-15T11:18:07.418Z,15.97
2023-11-15T11:20:38.898Z,15.80
2023-11-15T11:23:12.071Z,16.05
2023-11-15T11:25:41.232Z,16.09
2023-11-15T11:28:12.567Z,16.16
2023-11-15T11:30:41.925Z,16.22
2023-11-15T11:33:12.563Z,16.22
2023-11-15T11:35:42.334Z,16.19
2023-11-15T11:38:19.142Z,16.22
2023-11-15T11:40:48.924Z,16.11
2023-11-15T11:43:18.204Z,16.18
2023-11-15T11:45:48.012Z,16.14
2023-11-15T11:48:20.973Z,15.89
2023-11-15T11:51:00.856Z,15.96
2023-11-15T11:53:30.517Z,16.17
2023-11-15T11:55:58.825Z,16.39
2023-11-15T11:58:29.342Z,16.49
2023-11-15T12:01:02.637Z,16.29
2023-11-15T12:03:32.775Z,16.33
2023-11-15T12:06:08.717Z,16.40
2023-11-15T12:08:40.296Z,16.38
2023-11-15T12:11:09.578Z,16.40
2023-11-15T12:13:49.212Z,16.68
2023-11-15T12:16:19.156Z,16.86
2023-11-15T12:19:07.394Z,16.94
2023-11-15T12:21:38.595Z,17.08
2023-11-15T12:24:11.400Z,17.05
2023-11-15T12:26:47.608Z,16.88
2023-11-15T12:29:21.630Z,16.97
2023-11-15T12:31:54.647Z,17.04
2023-11-15T12:34:23.836Z,17.26
2023-11-15T12:36:53.114Z,17.18
2023-11-15T12:39:24.211Z,17.45
2023-11-15T12:41:58.487Z,17.60
2023-11-15T12:44:26.795Z,17.68
2023-11-15T12:46:59.556Z,17.98
2023-11-15T12:49:29.000Z,18.14
2023-11-15T12:51:57.294Z,18.34
2023-11-15T12:54:26.982Z,18.35
2023-11-15T12:57:05.814Z,18.59
2023-11-15T12:59:39.116Z,18.74
2023-11-15T13:02:07.951Z,18.93
2023-11-15T13:04:50.974Z,19.49
2023-11-15T13:07:19.440Z,20.40
2023-11-15T13:09:49.638Z,20.80
2023-11-15T13:12:25.641Z,21.42
2023-11-15T13:14:54.788Z,22.38
2023-11-15T13:17:23.148Z,22.62
2023-11-15T13:19:51.427Z,23.30
2023-11-15T13:22:19.936Z,23.13
2023-11-15T13:24:51.229Z,23.68
2023-11-15T13:27:21.878Z,24.47
2023-11-15T13:29:51.968Z,25.44
2023-11-15T13:32:20.668Z,26.08
2023-11-15T13:34:52.018Z,26.82
2023-11-15T13:37:20.757Z,25.80
2023-11-15T13:39:50.304Z,25.92
2023-11-15T13:42:18.695Z,24.53
2023-11-15T13:44:48.673Z,23.03
2023-11-15T13:47:17.203Z,21.57
2023-11-15T13:49:48.917Z,20.90
2023-11-15T13:52:17.851Z,20.24
2023-11-15T13:54:47.074Z,20.47
2023-11-15T13:57:18.923Z,20.97
2023-11-15T13:59:47.360Z,19.17
2023-11-15T14:02:15.732Z,18.53
2023-11-15T14:04:44.073Z,17.86
2023-11-15T14:07:12.675Z,17.04
2023-11-15T14:09:41.405Z,16.60
2023-11-15T14:12:10.323Z,16.11
2023-11-15T14:14:40.986Z,15.85
2023-11-15T14:17:11.444Z,15.65
2023-11-15T14:19:41.247Z,15.53
2023-11-15T14:22:09.494Z,15.39
2023-11-15T14:24:37.908Z,15.32
2023-11-15T14:27:06.744Z,15.27
2023-11-15T14:29:35.490Z,15.06
2023-11-15T14:32:08.831Z,14.85
2023-11-15T14:34:37.147Z,14.69
2023-11-15T14:37:05.818Z,14.46
2023-11-15T14:39:34.149Z,14.42
2023-11-15T14:42:08.315Z,14.20
2023-11-15T14:44:36.856Z,14.15
2023-11-15T14:47:09.951Z,14.04
2023-11-15T14:49:38.871Z,13.95
2023-11-15T14:52:12.106Z,13.75
2023-11-15T14:54:47.076Z,13.74
2023-11-15T14:57:16.136Z,13.67
2023-11-15T14:59:46.309Z,13.60
2023-11-15T15:02:18.695Z,13.53
2023-11-15T15:04:49.297Z,13.37
2023-11-15T15:07:20.054Z,13.19
2023-11-15T15:09:48.456Z,13.07
2023-11-15T15:12:16.739Z,13.19
2023-11-15T15:14:45.086Z,13.21
2023-11-15T15:17:23.290Z,13.17
2023-11-15T15:19:55.761Z,13.15
2023-11-15T15:22:27.651Z,13.11
2023-11-15T15:24:56.173Z,13.05
2023-11-15T15:27:28.263Z,12.02
2023-11-15T15:29:59.396Z,12.93
2023-11-15T15:32:28.372Z,12.35
2023-11-15T15:34:59.471Z,12.68
2023-11-15T15:37:27.828Z,12.61
2023-11-15T15:39:56.077Z,12.43
2023-11-15T15:42:25.493Z,12.33
2023-11-15T15:44:53.891Z,12.22
2023-11-15T15:47:23.071Z,12.13
2023-11-15T15:49:52.866Z,11.75
2023-11-15T15:52:23.643Z,11.67
2023-11-15T15:54:51.835Z,11.95
2023-11-15T15:57:20.355Z,11.78
2023-11-15T15:59:48.737Z,11.68
2023-11-15T16:02:17.067Z,11.35
2023-11-15T16:04:45.341Z,11.21
2023-11-15T16:07:13.684Z,11.16
2023-11-15T16:09:43.693Z,11.16
2023-11-15T16:12:12.115Z,11.06
2023-11-15T16:14:40.490Z,11.08
2023-11-15T16:17:09.282Z,10.97
2023-11-15T16:19:37.487Z,10.95
2023-11-15T16:22:06.002Z,10.68
2023-11-15T16:24:34.214Z,10.77
2023-11-15T16:27:05.021Z,10.54
2023-11-15T16:29:34.516Z,10.53
2023-11-15T16:32:03.068Z,10.29
2023-11-15T16:34:31.552Z,9.79
2023-11-15T16:37:00.012Z,10.26
2023-11-15T16:39:28.662Z,10.25
2023-11-15T16:41:57.052Z,9.75
2023-11-15T16:44:29.708Z,10.15
2023-11-15T16:46:58.172Z,10.24
2023-11-15T16:49:26.431Z,10.16
2023-11-15T16:51:55.289Z,10.05
2023-11-15T16:54:23.772Z,9.87
2023-11-15T16:56:52.187Z,10.06
2023-11-15T16:59:20.550Z,10.07
2023-11-15T17:01:50.345Z,10.04
2023-11-15T17:04:18.749Z,9.64
2023-11-15T17:06:47.026Z,10.00
2023-11-15T17:09:15.708Z,9.94
2023-11-15T17:11:44.502Z,9.99
2023-11-15T17:14:14.257Z,9.92
2023-11-15T17:16:42.648Z,9.78
2023-11-15T17:19:12.383Z,9.80
2023-11-15T17:21:42.763Z,9.63
2023-11-15T17:24:12.209Z,9.87
2023-11-15T17:26:42.122Z,9.64
2023-11-15T17:29:11.218Z,9.65
2023-11-15T17:31:39.710Z,9.65
2023-11-15T17:34:09.725Z,9.64
2023-11-15T17:36:39.762Z,9.23
2023-11-15T17:39:08.688Z,9.50
2023-11-15T17:41:37.020Z,9.42
2023-11-15T17:44:08.952Z,9.41
2023-11-15T17:46:39.642Z,9.06
2023-11-15T17:49:08.480Z,9.42
2023-11-15T17:51:36.758Z,9.41
2023-11-15T17:54:08.455Z,9.42
2023-11-15T17:56:36.962Z,9.38
2023-11-15T17:59:05.887Z,9.98
2023-11-15T18:01:34.925Z,10.03
2023-11-15T18:04:03.417Z,10.02
2023-11-15T18:06:33.163Z,9.98
2023-11-15T18:09:01.806Z,9.89
2023-11-15T18:11:31.493Z,9.83
2023-11-15T18:14:01.308Z,9.68
2023-11-15T18:16:31.321Z,9.57
2023-11-15T18:19:06.260Z,9.65
2023-11-15T18:21:34.760Z,9.59
2023-11-15T18:24:03.239Z,9.54
2023-11-15T18:26:33.140Z,9.48
2023-11-15T18:29:02.235Z,9.40
2023-11-15T18:31:30.610Z,9.26
2023-11-15T18:33:59.577Z,9.34
2023-11-15T18:36:30.283Z,9.25
2023-11-15T18:38:59.135Z,9.00
2023-11-15T18:41:27.452Z,9.19
2023-11-15T18:43:58.473Z,9.13
2023-11-15T18:46:27.762Z,9.03
2023-11-15T18:48:56.157Z,9.14
2023-11-15T18:51:28.954Z,8.90
2023-11-15T18:53:57.427Z,8.68
2023-11-15T18:56:27.502Z,8.11
2023-11-15T18:58:59.310Z,8.48
2023-11-15T19:01:27.732Z,8.47
2023-11-15T19:03:58.002Z,8.43
2023-11-15T19:06:37.543Z,8.43
2023-11-15T19:09:23.147Z,8.42
2023-11-15T19:11:56.637Z,8.40
2023-11-15T19:14:29.822Z,8.42
2023-11-15T19:17:01.216Z,8.40
2023-11-15T19:19:29.855Z,8.33
2023-11-15T19:21:58.322Z,8.26
2023-11-15T19:24:26.761Z,8.37
2023-11-15T19:26:55.627Z,8.35
2023-11-15T19:29:24.014Z,8.35
2023-11-15T19:31:53.880Z,8.22
2023-11-15T19:34:24.424Z,8.29
2023-11-15T19:36:53.794Z,8.28
2023-11-15T19:39:23.716Z,8.26
2023-11-15T19:41:52.013Z,8.26
2023-11-15T19:44:20.215Z,8.26
2023-11-15T19:46:49.080Z,8.30
2023-11-15T19:49:20.890Z,8.29
2023-11-15T19:51:52.692Z,8.20
2023-11-15T19:54:22.144Z,8.14
2023-11-15T19:56:51.240Z,8.09
2023-11-15T19:59:19.488Z,8.07
2023-11-15T20:01:48.559Z,8.13
2023-11-15T20:04:19.155Z,8.15
2023-11-15T20:06:48.506Z,8.11
2023-11-15T20:09:17.069Z,8.03
2023-11-15T20:11:47.587Z,7.99
2023-11-15T20:14:16.158Z,7.89
2023-11-15T20:16:44.559Z,7.99
2023-11-15T20:19:14.369Z,7.90
2023-11-15T20:21:44.054Z,7.92
2023-11-15T20:24:12.841Z,8.05
2023-11-15T20:26:41.842Z,8.16
2023-11-15T20:29:11.501Z,8.38
2023-11-15T20:31:40.558Z,8.20
2023-11-15T20:34:10.009Z,8.14
2023-11-15T20:36:38.689Z,7.97
2023-11-15T20:39:21.639Z,7.93
2023-11-15T20:41:53.319Z,7.74
2023-11-15T20:44:21.801Z,7.71
2023-11-15T20:46:50.109Z,7.60
2023-11-15T20:49:18.573Z,7.54
2023-11-15T20:51:49.292Z,7.16
2023-11-15T20:54:22.151Z,7.57
2023-11-15T20:56:50.380Z,7.59
2023-11-15T20:59:18.864Z,7.40
2023-11-15T21:01:48.131Z,7.67
2023-11-15T21:04:21.388Z,7.62
2023-11-15T21:06:52.081Z,7.35
2023-11-15T21:09:24.991Z,7.70
2023-11-15T21:11:54.858Z,7.69
2023-11-15T21:14:23.195Z,7.73
2023-11-15T21:16:51.483Z,7.65
2023-11-15T21:19:20.257Z,7.61
2023-11-15T21:21:48.456Z,7.56
2023-11-15T21:24:16.893Z,7.51
2023-11-15T21:26:47.927Z,7.51
2023-11-15T21:29:16.285Z,7.48
2023-11-15T21:31:44.641Z,7.43
2023-11-15T21:34:13.157Z,7.39
2023-11-15T21:36:41.454Z,7.28
2023-11-15T21:39:10.930Z,7.27
2023-11-15T21:41:39.431Z,7.22
2023-11-15T21:44:09.367Z,7.16
2023-11-15T21:46:38.423Z,7.11
2023-11-15T21:49:07.243Z,7.07
2023-11-15T21:51:35.605Z,7.19
2023-11-15T21:54:05.052Z,7.15
2023-11-15T21:56:33.300Z,7.09
2023-11-15T21:59:01.879Z,7.19
2023-11-15T22:01:31.593Z,7.39
2023-11-15T22:03:59.992Z,7.80
2023-11-15T22:06:28.247Z,8.14
2023-11-15T22:08:56.414Z,8.24
2023-11-15T22:11:24.782Z,8.38
2023-11-15T22:13:52.980Z,8.48
2023-11-15T22:16:21.182Z,8.64
2023-11-15T22:18:50.824Z,8.37
2023-11-15T22:21:19.146Z,8.99
2023-11-15T22:23:47.334Z,9.05
2023-11-15T22:26:16.383Z,9.10
2023-11-15T22:28:44.585Z,9.13
2023-11-15T22:31:13.777Z,9.10
2023-11-15T22:33:42.201Z,8.98
2023-11-15T22:36:12.572Z,9.08
2023-11-15T22:38:41.044Z,9.11
2023-11-15T22:41:09.318Z,8.90
2023-11-15T22:43:37.470Z,8.61
2023-11-15T22:46:06.796Z,8.87
2023-11-15T22:48:35.056Z,8.86
2023-11-15T22:51:03.372Z,8.79
2023-11-15T22:53:33.063Z,8.57
2023-11-15T22:56:01.245Z,8.45
2023-11-15T22:58:30.536Z,8.19
2023-11-15T23:00:58.826Z,8.09
2023-11-15T23:03:27.305Z,7.94
2023-11-15T23:05:58.257Z,7.70
2023-11-15T23:08:27.321Z,7.50
2023-11-15T23:10:57.299Z,7.51
2023-11-15T23:13:25.601Z,7.39
2023-11-15T23:15:53.874Z,7.24
2023-11-15T23:18:22.550Z,7.12
2023-11-15T23:20:51.251Z,7.06
2023-11-15T23:23:19.784Z,6.98
2023-11-15T23:25:51.397Z,6.93
2023-11-15T23:28:23.010Z,6.99
2023-11-15T23:30:55.434Z,6.88
2023-11-15T23:33:24.093Z,6.85
2023-11-15T23:35:52.992Z,6.71
2023-11-15T23:38:21.518Z,6.72
2023-11-15T23:40:49.860Z,6.52
2023-11-15T23:43:18.411Z,6.48
2023-11-15T23:45:55.787Z,6.43
2023-11-15T23:48:24.677Z,6.64
2023-11-15T23:50:54.545Z,6.63
2023-11-15T23:53:22.959Z,6.71
2023-11-15T23:55:51.440Z,6.68
2023-11-15T23:58:20.790Z,6.56
